sensor_id;sensor_type;location;lat;lon;timestamp;temperature;humidity
65034;DHT22;51601;51.356;12.458;2023-03-31T00:03:42;10.60;98.50
65034;DHT22;51601;51.356;12.458;2023-03-31T00:08:02;10.60;98.40
65034;DHT22;51601;51.356;12.458;2023-03-31T00:12:20;10.60;98.20
65034;DHT22;51601;51.356;12.458;2023-03-31T00:16:41;10.60;98.10
65034;DHT22;51601;51.356;12.458;2023-03-31T00:21:06;10.60;98.10
65034;DHT22;51601;51.356;12.458;2023-03-31T00:25:26;10.60;98.00
65034;DHT22;51601;51.356;12.458;2023-03-31T00:29:44;10.50;97.80
65034;DHT22;51601;51.356;12.458;2023-03-31T00:34:02;10.50;97.80
65034;DHT22;51601;51.356;12.458;2023-03-31T00:38:21;10.40;98.00
65034;DHT22;51601;51.356;12.458;2023-03-31T00:42:42;10.40;98.20
65034;DHT22;51601;51.356;12.458;2023-03-31T00:47:05;10.30;98.30
65034;DHT22;51601;51.356;12.458;2023-03-31T00:51:25;10.20;98.60
65034;DHT22;51601;51.356;12.458;2023-03-31T00:55:49;10.20;98.90
65034;DHT22;51601;51.356;12.458;2023-03-31T01:00:11;10.20;98.90
65034;DHT22;51601;51.356;12.458;2023-03-31T01:04:33;10.20;99.00
65034;DHT22;51601;51.356;12.458;2023-03-31T01:08:51;10.20;99.20
65034;DHT22;51601;51.356;12.458;2023-03-31T01:13:12;10.20;99.40
65034;DHT22;51601;51.356;12.458;2023-03-31T01:17:30;10.20;99.40
65034;DHT22;51601;51.356;12.458;2023-03-31T01:27:04;10.30;99.30
65034;DHT22;51601;51.356;12.458;2023-03-31T01:36:43;10.30;98.90
65034;DHT22;51601;51.356;12.458;2023-03-31T01:41:35;10.30;98.80
65034;DHT22;51601;51.356;12.458;2023-03-31T01:45:59;10.20;98.60
65034;DHT22;51601;51.356;12.458;2023-03-31T01:50:24;10.10;98.50
65034;DHT22;51601;51.356;12.458;2023-03-31T01:54:47;10.00;98.50
65034;DHT22;51601;51.356;12.458;2023-03-31T01:59:11;9.90;98.70
65034;DHT22;51601;51.356;12.458;2023-03-31T02:03:35;9.80;98.80
65034;DHT22;51601;51.356;12.458;2023-03-31T02:08:00;9.70;99.00
65034;DHT22;51601;51.356;12.458;2023-03-31T02:12:23;9.70;99.40
65034;DHT22;51601;51.356;12.458;2023-03-31T02:16:45;9.60;99.90
65034;DHT22;51601;51.356;12.458;2023-03-31T02:21:07;9.60;99.90
65034;DHT22;51601;51.356;12.458;2023-03-31T02:25:30;9.60;99.90
65034;DHT22;51601;51.356;12.458;2023-03-31T02:29:52;9.60;99.90
65034;DHT22;51601;51.356;12.458;2023-03-31T02:34:14;9.60;99.90
65034;DHT22;51601;51.356;12.458;2023-03-31T02:38:38;9.70;99.90
65034;DHT22;51601;51.356;12.458;2023-03-31T02:42:58;9.70;99.90
65034;DHT22;51601;51.356;12.458;2023-03-31T02:47:20;9.80;99.90
65034;DHT22;51601;51.356;12.458;2023-03-31T02:52:15;9.80;99.90
65034;DHT22;51601;51.356;12.458;2023-03-31T02:56:50;10.00;99.90
65034;DHT22;51601;51.356;12.458;2023-03-31T03:01:26;10.00;99.90
65034;DHT22;51601;51.356;12.458;2023-03-31T03:05:58;10.10;99.90
65034;DHT22;51601;51.356;12.458;2023-03-31T03:10:43;10.10;99.90
65034;DHT22;51601;51.356;12.458;2023-03-31T03:15:06;10.20;99.90
65034;DHT22;51601;51.356;12.458;2023-03-31T03:19:28;10.20;99.90
65034;DHT22;51601;51.356;12.458;2023-03-31T03:23:46;10.30;99.90
65034;DHT22;51601;51.356;12.458;2023-03-31T03:28:05;10.30;99.80
65034;DHT22;51601;51.356;12.458;2023-03-31T03:32:25;10.30;99.70
65034;DHT22;51601;51.356;12.458;2023-03-31T03:36:43;10.40;99.50
65034;DHT22;51601;51.356;12.458;2023-03-31T03:41:02;10.40;99.40
65034;DHT22;51601;51.356;12.458;2023-03-31T03:45:21;10.40;99.30
65034;DHT22;51601;51.356;12.458;2023-03-31T03:49:41;10.40;99.10
65034;DHT22;51601;51.356;12.458;2023-03-31T03:53:59;10.40;98.80
65034;DHT22;51601;51.356;12.458;2023-03-31T03:58:17;10.40;98.60
65034;DHT22;51601;51.356;12.458;2023-03-31T04:02:36;10.30;98.40
65034;DHT22;51601;51.356;12.458;2023-03-31T04:06:56;10.30;98.30
65034;DHT22;51601;51.356;12.458;2023-03-31T04:11:16;10.20;98.40
65034;DHT22;51601;51.356;12.458;2023-03-31T04:15:35;10.20;98.70
65034;DHT22;51601;51.356;12.458;2023-03-31T04:19:54;10.20;98.90
65034;DHT22;51601;51.356;12.458;2023-03-31T04:24:17;10.20;99.20
65034;DHT22;51601;51.356;12.458;2023-03-31T04:28:39;10.30;99.20
65034;DHT22;51601;51.356;12.458;2023-03-31T04:33:01;10.30;99.10
65034;DHT22;51601;51.356;12.458;2023-03-31T04:37:22;10.40;98.90
65034;DHT22;51601;51.356;12.458;2023-03-31T04:41:45;10.40;98.60
65034;DHT22;51601;51.356;12.458;2023-03-31T04:46:03;10.50;98.40
65034;DHT22;51601;51.356;12.458;2023-03-31T04:50:21;10.50;98.20
65034;DHT22;51601;51.356;12.458;2023-03-31T04:54:40;10.60;98.00
65034;DHT22;51601;51.356;12.458;2023-03-31T04:59:00;10.60;97.80
65034;DHT22;51601;51.356;12.458;2023-03-31T05:03:18;10.50;97.70
65034;DHT22;51601;51.356;12.458;2023-03-31T05:07:36;10.60;97.60
65034;DHT22;51601;51.356;12.458;2023-03-31T05:11:56;10.50;97.70
65034;DHT22;51601;51.356;12.458;2023-03-31T05:16:15;10.60;97.80
65034;DHT22;51601;51.356;12.458;2023-03-31T05:20:34;10.60;97.60
65034;DHT22;51601;51.356;12.458;2023-03-31T05:24:51;10.60;97.60
65034;DHT22;51601;51.356;12.458;2023-03-31T05:29:11;10.60;97.80
65034;DHT22;51601;51.356;12.458;2023-03-31T05:33:31;10.60;98.10
65034;DHT22;51601;51.356;12.458;2023-03-31T05:37:49;10.60;98.50
65034;DHT22;51601;51.356;12.458;2023-03-31T05:42:07;10.60;98.80
65034;DHT22;51601;51.356;12.458;2023-03-31T05:46:26;10.60;99.10
65034;DHT22;51601;51.356;12.458;2023-03-31T05:50:46;10.60;99.50
65034;DHT22;51601;51.356;12.458;2023-03-31T05:55:05;10.70;99.90
65034;DHT22;51601;51.356;12.458;2023-03-31T05:59:25;10.70;99.90
65034;DHT22;51601;51.356;12.458;2023-03-31T06:03:45;11.10;99.90
65034;DHT22;51601;51.356;12.458;2023-03-31T06:08:04;11.50;99.90
65034;DHT22;51601;51.356;12.458;2023-03-31T06:12:22;11.90;98.70
65034;DHT22;51601;51.356;12.458;2023-03-31T06:16:40;12.10;96.40
65034;DHT22;51601;51.356;12.458;2023-03-31T06:21:00;12.10;95.20
65034;DHT22;51601;51.356;12.458;2023-03-31T06:25:20;12.00;94.80
65034;DHT22;51601;51.356;12.458;2023-03-31T06:29:38;11.90;95.00
65034;DHT22;51601;51.356;12.458;2023-03-31T06:33:56;11.90;95.20
65034;DHT22;51601;51.356;12.458;2023-03-31T06:38:15;11.80;95.50
65034;DHT22;51601;51.356;12.458;2023-03-31T06:42:35;11.70;95.90
65034;DHT22;51601;51.356;12.458;2023-03-31T06:46:53;11.60;96.10
65034;DHT22;51601;51.356;12.458;2023-03-31T06:51:11;11.50;96.30
65034;DHT22;51601;51.356;12.458;2023-03-31T06:55:32;11.40;96.90
65034;DHT22;51601;51.356;12.458;2023-03-31T06:59:50;11.40;97.70
65034;DHT22;51601;51.356;12.458;2023-03-31T07:04:08;11.50;98.00
65034;DHT22;51601;51.356;12.458;2023-03-31T07:08:26;11.60;98.10
65034;DHT22;51601;51.356;12.458;2023-03-31T07:12:49;11.60;97.70
65034;DHT22;51601;51.356;12.458;2023-03-31T07:17:09;11.80;97.90
65034;DHT22;51601;51.356;12.458;2023-03-31T07:21:27;12.00;97.20
65034;DHT22;51601;51.356;12.458;2023-03-31T07:25:45;12.10;96.50
65034;DHT22;51601;51.356;12.458;2023-03-31T07:30:06;12.20;95.20
65034;DHT22;51601;51.356;12.458;2023-03-31T07:34:24;12.20;94.50
65034;DHT22;51601;51.356;12.458;2023-03-31T07:38:44;12.20;94.00
65034;DHT22;51601;51.356;12.458;2023-03-31T07:43:03;12.20;94.00
65034;DHT22;51601;51.356;12.458;2023-03-31T07:47:22;12.30;93.50
65034;DHT22;51601;51.356;12.458;2023-03-31T07:51:42;12.30;93.30
65034;DHT22;51601;51.356;12.458;2023-03-31T07:56:00;12.40;93.50
65034;DHT22;51601;51.356;12.458;2023-03-31T08:00:19;12.50;93.30
65034;DHT22;51601;51.356;12.458;2023-03-31T08:04:38;12.60;92.30
65034;DHT22;51601;51.356;12.458;2023-03-31T08:08:58;12.80;91.90
65034;DHT22;51601;51.356;12.458;2023-03-31T08:13:16;13.00;90.60
65034;DHT22;51601;51.356;12.458;2023-03-31T08:17:34;13.20;89.60
65034;DHT22;51601;51.356;12.458;2023-03-31T08:21:53;13.30;88.30
65034;DHT22;51601;51.356;12.458;2023-03-31T08:26:14;13.50;85.50
65034;DHT22;51601;51.356;12.458;2023-03-31T08:30:36;13.70;83.90
65034;DHT22;51601;51.356;12.458;2023-03-31T08:34:55;13.80;83.30
65034;DHT22;51601;51.356;12.458;2023-03-31T08:39:15;14.10;82.30
65034;DHT22;51601;51.356;12.458;2023-03-31T08:43:39;14.20;79.90
65034;DHT22;51601;51.356;12.458;2023-03-31T08:48:02;14.30;78.20
65034;DHT22;51601;51.356;12.458;2023-03-31T08:52:26;14.20;78.10
65034;DHT22;51601;51.356;12.458;2023-03-31T08:56:49;14.10;80.30
65034;DHT22;51601;51.356;12.458;2023-03-31T09:01:17;13.90;82.90
65034;DHT22;51601;51.356;12.458;2023-03-31T09:05:50;13.60;86.70
65034;DHT22;51601;51.356;12.458;2023-03-31T09:10:37;13.40;90.00
65034;DHT22;51601;51.356;12.458;2023-03-31T09:15:00;13.10;92.60
65034;DHT22;51601;51.356;12.458;2023-03-31T09:19:32;13.00;95.60
65034;DHT22;51601;51.356;12.458;2023-03-31T09:23:55;13.00;96.60
65034;DHT22;51601;51.356;12.458;2023-03-31T09:28:19;12.90;96.50
65034;DHT22;51601;51.356;12.458;2023-03-31T09:32:39;12.70;97.00
65034;DHT22;51601;51.356;12.458;2023-03-31T09:36:59;12.50;97.80
65034;DHT22;51601;51.356;12.458;2023-03-31T09:41:17;12.30;99.00
65034;DHT22;51601;51.356;12.458;2023-03-31T09:45:35;12.20;99.90
65034;DHT22;51601;51.356;12.458;2023-03-31T09:49:54;12.20;99.90
65034;DHT22;51601;51.356;12.458;2023-03-31T09:54:20;12.20;99.90
65034;DHT22;51601;51.356;12.458;2023-03-31T09:58:40;12.10;99.90
65034;DHT22;51601;51.356;12.458;2023-03-31T10:03:01;12.10;99.90
65034;DHT22;51601;51.356;12.458;2023-03-31T10:07:25;12.00;99.90
65034;DHT22;51601;51.356;12.458;2023-03-31T10:11:55;11.90;99.90
65034;DHT22;51601;51.356;12.458;2023-03-31T10:16:26;11.80;99.90
65034;DHT22;51601;51.356;12.458;2023-03-31T10:20:49;11.70;99.90
65034;DHT22;51601;51.356;12.458;2023-03-31T10:25:15;11.60;99.90
65034;DHT22;51601;51.356;12.458;2023-03-31T10:29:34;11.50;99.90
65034;DHT22;51601;51.356;12.458;2023-03-31T10:33:52;11.40;99.90
65034;DHT22;51601;51.356;12.458;2023-03-31T10:38:12;11.20;99.90
65034;DHT22;51601;51.356;12.458;2023-03-31T10:42:32;11.20;99.90
65034;DHT22;51601;51.356;12.458;2023-03-31T10:46:52;11.10;99.90
65034;DHT22;51601;51.356;12.458;2023-03-31T10:51:13;11.10;99.90
65034;DHT22;51601;51.356;12.458;2023-03-31T10:55:35;11.00;99.90
65034;DHT22;51601;51.356;12.458;2023-03-31T11:00:05;11.00;99.90
65034;DHT22;51601;51.356;12.458;2023-03-31T11:04:41;10.90;99.90
65034;DHT22;51601;51.356;12.458;2023-03-31T11:09:12;10.80;99.90
65034;DHT22;51601;51.356;12.458;2023-03-31T11:13:40;10.70;99.90
65034;DHT22;51601;51.356;12.458;2023-03-31T11:18:21;10.60;99.90
65034;DHT22;51601;51.356;12.458;2023-03-31T11:22:47;10.50;99.90
65034;DHT22;51601;51.356;12.458;2023-03-31T11:27:26;10.50;99.90
65034;DHT22;51601;51.356;12.458;2023-03-31T11:31:50;10.50;99.90
65034;DHT22;51601;51.356;12.458;2023-03-31T11:36:19;10.50;99.90
65034;DHT22;51601;51.356;12.458;2023-03-31T11:40:49;10.50;99.90
65034;DHT22;51601;51.356;12.458;2023-03-31T11:45:15;10.50;99.90
65034;DHT22;51601;51.356;12.458;2023-03-31T11:49:38;10.50;99.90
65034;DHT22;51601;51.356;12.458;2023-03-31T11:54:03;10.50;99.90
65034;DHT22;51601;51.356;12.458;2023-03-31T11:58:31;10.50;99.90
65034;DHT22;51601;51.356;12.458;2023-03-31T12:02:54;10.50;99.90
65034;DHT22;51601;51.356;12.458;2023-03-31T12:07:22;10.40;99.90
65034;DHT22;51601;51.356;12.458;2023-03-31T12:11:44;10.40;99.90
65034;DHT22;51601;51.356;12.458;2023-03-31T12:16:08;10.40;99.90
65034;DHT22;51601;51.356;12.458;2023-03-31T12:20:31;10.40;99.90
65034;DHT22;51601;51.356;12.458;2023-03-31T12:24:52;10.40;99.90
65034;DHT22;51601;51.356;12.458;2023-03-31T12:29:21;10.40;99.90
65034;DHT22;51601;51.356;12.458;2023-03-31T12:33:42;10.50;99.90
65034;DHT22;51601;51.356;12.458;2023-03-31T12:38:14;10.60;99.90
65034;DHT22;51601;51.356;12.458;2023-03-31T12:42:53;10.70;99.90
65034;DHT22;51601;51.356;12.458;2023-03-31T12:47:44;10.70;99.90
65034;DHT22;51601;51.356;12.458;2023-03-31T12:52:11;10.80;99.90
65034;DHT22;51601;51.356;12.458;2023-03-31T12:57:11;10.80;99.90
65034;DHT22;51601;51.356;12.458;2023-03-31T13:01:32;10.80;99.90
65034;DHT22;51601;51.356;12.458;2023-03-31T13:05:51;11.00;99.90
65034;DHT22;51601;51.356;12.458;2023-03-31T13:10:28;11.20;99.90
65034;DHT22;51601;51.356;12.458;2023-03-31T13:14:49;11.50;99.90
65034;DHT22;51601;51.356;12.458;2023-03-31T13:19:10;11.80;99.90
65034;DHT22;51601;51.356;12.458;2023-03-31T13:23:33;12.10;99.90
65034;DHT22;51601;51.356;12.458;2023-03-31T13:27:55;12.30;99.90
65034;DHT22;51601;51.356;12.458;2023-03-31T13:32:19;12.40;99.90
65034;DHT22;51601;51.356;12.458;2023-03-31T13:36:52;12.60;99.90
65034;DHT22;51601;51.356;12.458;2023-03-31T13:41:27;12.80;99.90
65034;DHT22;51601;51.356;12.458;2023-03-31T13:46:24;13.10;99.90
65034;DHT22;51601;51.356;12.458;2023-03-31T13:51:13;13.20;99.90
65034;DHT22;51601;51.356;12.458;2023-03-31T13:55:59;13.30;99.90
65034;DHT22;51601;51.356;12.458;2023-03-31T14:00:34;13.40;99.90
65034;DHT22;51601;51.356;12.458;2023-03-31T14:05:07;13.40;99.90
65034;DHT22;51601;51.356;12.458;2023-03-31T14:09:30;13.50;99.90
65034;DHT22;51601;51.356;12.458;2023-03-31T14:14:04;13.70;99.90
65034;DHT22;51601;51.356;12.458;2023-03-31T14:18:28;13.80;99.90
65034;DHT22;51601;51.356;12.458;2023-03-31T14:22:53;13.90;99.90
65034;DHT22;51601;51.356;12.458;2023-03-31T14:27:22;13.90;99.90
65034;DHT22;51601;51.356;12.458;2023-03-31T14:31:46;13.80;99.90
65034;DHT22;51601;51.356;12.458;2023-03-31T14:36:12;13.50;99.90
65034;DHT22;51601;51.356;12.458;2023-03-31T14:40:43;13.30;99.90
65034;DHT22;51601;51.356;12.458;2023-03-31T14:45:06;13.10;99.90
65034;DHT22;51601;51.356;12.458;2023-03-31T14:49:36;13.00;99.90
65034;DHT22;51601;51.356;12.458;2023-03-31T14:53:57;12.90;99.90
65034;DHT22;51601;51.356;12.458;2023-03-31T14:58:23;12.50;99.90
65034;DHT22;51601;51.356;12.458;2023-03-31T15:02:45;12.10;99.90
65034;DHT22;51601;51.356;12.458;2023-03-31T15:07:05;11.60;99.90
65034;DHT22;51601;51.356;12.458;2023-03-31T15:11:26;11.30;99.90
65034;DHT22;51601;51.356;12.458;2023-03-31T15:15:47;11.00;99.90
65034;DHT22;51601;51.356;12.458;2023-03-31T15:20:23;10.90;99.90
65034;DHT22;51601;51.356;12.458;2023-03-31T15:24:44;10.80;99.90
65034;DHT22;51601;51.356;12.458;2023-03-31T15:29:06;10.80;99.90
65034;DHT22;51601;51.356;12.458;2023-03-31T15:33:31;10.80;99.90
65034;DHT22;51601;51.356;12.458;2023-03-31T15:37:55;10.90;99.90
65034;DHT22;51601;51.356;12.458;2023-03-31T15:42:15;10.90;99.90
65034;DHT22;51601;51.356;12.458;2023-03-31T15:46:54;11.10;99.90
65034;DHT22;51601;51.356;12.458;2023-03-31T15:51:18;11.30;99.90
65034;DHT22;51601;51.356;12.458;2023-03-31T15:55:40;11.40;99.90
65034;DHT22;51601;51.356;12.458;2023-03-31T15:59:58;11.30;99.90
65034;DHT22;51601;51.356;12.458;2023-03-31T16:04:17;11.20;99.90
65034;DHT22;51601;51.356;12.458;2023-03-31T16:08:40;11.20;99.90
65034;DHT22;51601;51.356;12.458;2023-03-31T16:13:03;11.20;99.90
65034;DHT22;51601;51.356;12.458;2023-03-31T16:17:27;11.10;99.90
65034;DHT22;51601;51.356;12.458;2023-03-31T16:21:50;11.10;99.90
65034;DHT22;51601;51.356;12.458;2023-03-31T16:26:11;11.00;99.90
65034;DHT22;51601;51.356;12.458;2023-03-31T16:30:34;10.90;99.90
65034;DHT22;51601;51.356;12.458;2023-03-31T16:34:55;10.80;99.90
65034;DHT22;51601;51.356;12.458;2023-03-31T16:39:16;10.70;99.90
65034;DHT22;51601;51.356;12.458;2023-03-31T16:43:35;10.60;99.90
65034;DHT22;51601;51.356;12.458;2023-03-31T16:47:53;10.60;99.90
65034;DHT22;51601;51.356;12.458;2023-03-31T16:52:17;10.60;99.90
65034;DHT22;51601;51.356;12.458;2023-03-31T16:56:37;10.60;99.90
65034;DHT22;51601;51.356;12.458;2023-03-31T17:00:57;10.60;99.90
65034;DHT22;51601;51.356;12.458;2023-03-31T17:05:15;10.70;99.90
65034;DHT22;51601;51.356;12.458;2023-03-31T17:09:33;10.60;99.90
65034;DHT22;51601;51.356;12.458;2023-03-31T17:13:52;10.60;99.90
65034;DHT22;51601;51.356;12.458;2023-03-31T17:18:12;10.60;99.90
65034;DHT22;51601;51.356;12.458;2023-03-31T17:22:30;10.60;99.90
65034;DHT22;51601;51.356;12.458;2023-03-31T17:26:48;10.50;99.90
65034;DHT22;51601;51.356;12.458;2023-03-31T17:31:11;10.50;99.90
65034;DHT22;51601;51.356;12.458;2023-03-31T17:35:30;10.40;99.90
65034;DHT22;51601;51.356;12.458;2023-03-31T17:39:48;10.40;99.90
65034;DHT22;51601;51.356;12.458;2023-03-31T17:44:06;10.40;99.90
65034;DHT22;51601;51.356;12.458;2023-03-31T17:48:26;10.40;99.90
65034;DHT22;51601;51.356;12.458;2023-03-31T17:52:46;10.40;99.90
65034;DHT22;51601;51.356;12.458;2023-03-31T17:57:04;10.40;99.90
65034;DHT22;51601;51.356;12.458;2023-03-31T18:01:22;10.50;99.90
65034;DHT22;51601;51.356;12.458;2023-03-31T18:05:41;10.50;99.90
65034;DHT22;51601;51.356;12.458;2023-03-31T18:10:01;10.50;99.90
65034;DHT22;51601;51.356;12.458;2023-03-31T18:14:22;10.60;99.90
65034;DHT22;51601;51.356;12.458;2023-03-31T18:18:40;10.60;99.90
65034;DHT22;51601;51.356;12.458;2023-03-31T18:23:02;10.60;99.90
65034;DHT22;51601;51.356;12.458;2023-03-31T18:27:22;10.60;99.90
65034;DHT22;51601;51.356;12.458;2023-03-31T18:31:40;10.70;99.90
65034;DHT22;51601;51.356;12.458;2023-03-31T18:35:59;10.70;99.90
65034;DHT22;51601;51.356;12.458;2023-03-31T18:40:18;10.70;99.90
65034;DHT22;51601;51.356;12.458;2023-03-31T18:44:38;10.70;99.90
65034;DHT22;51601;51.356;12.458;2023-03-31T18:48:56;10.70;99.90
65034;DHT22;51601;51.356;12.458;2023-03-31T18:53:14;10.70;99.90
65034;DHT22;51601;51.356;12.458;2023-03-31T18:57:36;10.70;99.90
65034;DHT22;51601;51.356;12.458;2023-03-31T19:01:56;10.70;99.90
65034;DHT22;51601;51.356;12.458;2023-03-31T19:06:14;10.70;99.90
65034;DHT22;51601;51.356;12.458;2023-03-31T19:10:32;10.60;99.90
65034;DHT22;51601;51.356;12.458;2023-03-31T19:14:51;10.60;99.90
65034;DHT22;51601;51.356;12.458;2023-03-31T19:19:11;10.50;99.90
65034;DHT22;51601;51.356;12.458;2023-03-31T19:23:30;10.50;99.90
65034;DHT22;51601;51.356;12.458;2023-03-31T19:27:47;10.40;99.90
65034;DHT22;51601;51.356;12.458;2023-03-31T19:32:07;10.30;99.90
65034;DHT22;51601;51.356;12.458;2023-03-31T19:36:26;10.20;99.90
65034;DHT22;51601;51.356;12.458;2023-03-31T19:40:45;10.20;99.90
65034;DHT22;51601;51.356;12.458;2023-03-31T19:45:03;10.10;99.90
65034;DHT22;51601;51.356;12.458;2023-03-31T19:49:25;10.10;99.90
65034;DHT22;51601;51.356;12.458;2023-03-31T19:53:45;10.10;99.90
65034;DHT22;51601;51.356;12.458;2023-03-31T19:58:03;10.00;99.90
65034;DHT22;51601;51.356;12.458;2023-03-31T20:02:21;10.00;99.90
65034;DHT22;51601;51.356;12.458;2023-03-31T20:06:41;10.00;99.90
65034;DHT22;51601;51.356;12.458;2023-03-31T20:11:00;10.00;99.90
65034;DHT22;51601;51.356;12.458;2023-03-31T20:15:18;9.90;99.90
65034;DHT22;51601;51.356;12.458;2023-03-31T20:19:36;9.90;99.90
65034;DHT22;51601;51.356;12.458;2023-03-31T20:23:56;9.90;99.90
65034;DHT22;51601;51.356;12.458;2023-03-31T20:28:16;10.00;99.90
65034;DHT22;51601;51.356;12.458;2023-03-31T20:32:33;10.00;99.90
65034;DHT22;51601;51.356;12.458;2023-03-31T20:36:52;10.00;99.90
65034;DHT22;51601;51.356;12.458;2023-03-31T20:41:11;10.00;99.90
65034;DHT22;51601;51.356;12.458;2023-03-31T20:45:31;10.10;99.90
65034;DHT22;51601;51.356;12.458;2023-03-31T20:49:49;10.00;99.90
65034;DHT22;51601;51.356;12.458;2023-03-31T20:54:07;10.00;99.90
65034;DHT22;51601;51.356;12.458;2023-03-31T20:58:27;10.00;99.90
65034;DHT22;51601;51.356;12.458;2023-03-31T21:02:46;10.00;99.90
65034;DHT22;51601;51.356;12.458;2023-03-31T21:07:07;10.00;99.90
65034;DHT22;51601;51.356;12.458;2023-03-31T21:11:25;9.90;99.90
65034;DHT22;51601;51.356;12.458;2023-03-31T21:15:47;9.90;99.90
65034;DHT22;51601;51.356;12.458;2023-03-31T21:20:08;10.00;99.90
65034;DHT22;51601;51.356;12.458;2023-03-31T21:24:29;10.00;99.90
65034;DHT22;51601;51.356;12.458;2023-03-31T21:28:49;9.90;99.90
65034;DHT22;51601;51.356;12.458;2023-03-31T21:33:12;9.90;99.90
65034;DHT22;51601;51.356;12.458;2023-03-31T21:37:32;9.90;99.90
65034;DHT22;51601;51.356;12.458;2023-03-31T21:41:53;10.00;99.90
65034;DHT22;51601;51.356;12.458;2023-03-31T21:46:14;10.00;99.90
65034;DHT22;51601;51.356;12.458;2023-03-31T21:50:34;10.00;99.90
65034;DHT22;51601;51.356;12.458;2023-03-31T21:54:53;9.90;99.90
65034;DHT22;51601;51.356;12.458;2023-03-31T21:59:11;10.00;99.90
65034;DHT22;51601;51.356;12.458;2023-03-31T22:03:31;10.00;99.90
65034;DHT22;51601;51.356;12.458;2023-03-31T22:07:52;9.90;99.90
65034;DHT22;51601;51.356;12.458;2023-03-31T22:12:12;10.00;99.90
65034;DHT22;51601;51.356;12.458;2023-03-31T22:16:30;10.00;99.90
65034;DHT22;51601;51.356;12.458;2023-03-31T22:20:48;9.90;99.90
65034;DHT22;51601;51.356;12.458;2023-03-31T22:25:08;9.90;99.90
65034;DHT22;51601;51.356;12.458;2023-03-31T22:29:27;9.90;99.90
65034;DHT22;51601;51.356;12.458;2023-03-31T22:33:45;9.90;99.90
65034;DHT22;51601;51.356;12.458;2023-03-31T22:38:03;9.90;99.90
65034;DHT22;51601;51.356;12.458;2023-03-31T22:42:23;9.90;99.90
65034;DHT22;51601;51.356;12.458;2023-03-31T22:46:42;9.90;99.90
65034;DHT22;51601;51.356;12.458;2023-03-31T22:51:04;9.80;99.90
65034;DHT22;51601;51.356;12.458;2023-03-31T22:55:25;9.80;99.90
65034;DHT22;51601;51.356;12.458;2023-03-31T22:59:44;9.80;99.90
65034;DHT22;51601;51.356;12.458;2023-03-31T23:04:04;9.70;99.90
65034;DHT22;51601;51.356;12.458;2023-03-31T23:08:22;9.70;99.90
65034;DHT22;51601;51.356;12.458;2023-03-31T23:12:40;9.70;99.90
65034;DHT22;51601;51.356;12.458;2023-03-31T23:17:00;9.70;99.90
65034;DHT22;51601;51.356;12.458;2023-03-31T23:21:21;9.70;99.90
65034;DHT22;51601;51.356;12.458;2023-03-31T23:25:40;9.60;99.90
65034;DHT22;51601;51.356;12.458;2023-03-31T23:29:58;9.70;99.90
65034;DHT22;51601;51.356;12.458;2023-03-31T23:34:18;9.60;99.90
65034;DHT22;51601;51.356;12.458;2023-03-31T23:38:38;9.60;99.90
65034;DHT22;51601;51.356;12.458;2023-03-31T23:42:59;9.60;99.90
65034;DHT22;51601;51.356;12.458;2023-03-31T23:47:17;9.60;99.90
65034;DHT22;51601;51.356;12.458;2023-03-31T23:51:36;9.60;99.90
65034;DHT22;51601;51.356;12.458;2023-03-31T23:55:57;9.60;99.90
